sensor_id;sensor_type;location;lat;lon;timestamp;P1;durP1;ratioP1;P2;durP2;ratioP2
67344;SDS011;54230;52.402;6.276;2023-02-28T00:00:00;9.5;;;3.6;;
67344;SDS011;54230;52.402;6.276;2023-02-28T00:05:00;7.9;;;3.5;;
67344;SDS011;54230;52.402;6.276;2023-02-28T00:10:00;8.6;;;3.8;;
67344;SDS011;54230;52.402;6.276;2023-02-28T00:15:00;8.4;;;3.6;;
67344;SDS011;54230;52.402;6.276;2023-02-28T00:20:00;9.0;;;3.8;;
67344;SDS011;54230;52.402;6.276;2023-02-28T00:25:00;7.6;;;3.7;;
67344;SDS011;54230;52.402;6.276;2023-02-28T00:30:00;8.3;;;3.6;;
67344;SDS011;54230;52.402;6.276;2023-02-28T00:35:00;9.8;;;3.9;;
67344;SDS011;54230;52.402;6.276;2023-02-28T00:40:00;8.3;;;3.6;;
67344;SDS011;54230;52.402;6.276;2023-02-28T00:45:00;9.2;;;4.1;;
67344;SDS011;54230;52.402;6.276;2023-02-28T00:50:00;8.8;;;4.0;;
67344;SDS011;54230;52.402;6.276;2023-02-28T00:55:00;9.6;;;4.0;;
67344;SDS011;54230;52.402;6.276;2023-02-28T01:00:00;9.0;;;3.9;;
67344;SDS011;54230;52.402;6.276;2023-02-28T01:05:00;8.8;;;4.0;;
67344;SDS011;54230;52.402;6.276;2023-02-28T01:10:00;8.1;;;4.1;;
67344;SDS011;54230;52.402;6.276;2023-02-28T01:15:00;8.8;;;4.0;;
67344;SDS011;54230;52.402;6.276;2023-02-28T01:20:00;9.7;;;4.0;;
67344;SDS011;54230;52.402;6.276;2023-02-28T01:25:00;9.2;;;4.0;;
67344;SDS011;54230;52.402;6.276;2023-02-28T01:30:00;10.3;;;4.4;;
67344;SDS011;54230;52.402;6.276;2023-02-28T01:35:00;6.7;;;3.8;;
67344;SDS011;54230;52.402;6.276;2023-02-28T01:40:00;8.8;;;4.0;;
67344;SDS011;54230;52.402;6.276;2023-02-28T01:45:02;9.0;;;3.9;;
67344;SDS011;54230;52.402;6.276;2023-02-28T01:50:00;11.1;;;4.4;;
67344;SDS011;54230;52.402;6.276;2023-02-28T01:55:00;7.6;;;3.9;;
67344;SDS011;54230;52.402;6.276;2023-02-28T02:00:00;9.2;;;4.1;;
67344;SDS011;54230;52.402;6.276;2023-02-28T02:05:04;10.0;;;4.2;;
67344;SDS011;54230;52.402;6.276;2023-02-28T02:10:01;8.8;;;4.2;;
67344;SDS011;54230;52.402;6.276;2023-02-28T02:15:01;8.7;;;4.2;;
67344;SDS011;54230;52.402;6.276;2023-02-28T02:25:07;9.3;;;4.1;;
67344;SDS011;54230;52.402;6.276;2023-02-28T02:35:01;10.2;;;4.3;;
67344;SDS011;54230;52.402;6.276;2023-02-28T02:40:02;10.2;;;4.4;;
67344;SDS011;54230;52.402;6.276;2023-02-28T02:45:01;9.3;;;4.5;;
67344;SDS011;54230;52.402;6.276;2023-02-28T02:50:01;10.1;;;4.6;;
67344;SDS011;54230;52.402;6.276;2023-02-28T02:55:00;10.2;;;4.5;;
67344;SDS011;54230;52.402;6.276;2023-02-28T03:00:00;9.8;;;4.2;;
67344;SDS011;54230;52.402;6.276;2023-02-28T03:05:01;8.2;;;4.1;;
67344;SDS011;54230;52.402;6.276;2023-02-28T03:10:00;9.9;;;4.5;;
67344;SDS011;54230;52.402;6.276;2023-02-28T03:15:03;11.8;;;4.8;;
67344;SDS011;54230;52.402;6.276;2023-02-28T03:20:04;10.9;;;5.0;;
67344;SDS011;54230;52.402;6.276;2023-02-28T03:25:01;10.8;;;5.0;;
67344;SDS011;54230;52.402;6.276;2023-02-28T03:30:00;13.8;;;5.2;;
67344;SDS011;54230;52.402;6.276;2023-02-28T03:35:01;11.6;;;5.0;;
67344;SDS011;54230;52.402;6.276;2023-02-28T03:40:01;12.6;;;5.2;;
67344;SDS011;54230;52.402;6.276;2023-02-28T03:45:00;10.1;;;5.2;;
67344;SDS011;54230;52.402;6.276;2023-02-28T03:50:01;9.7;;;4.9;;
67344;SDS011;54230;52.402;6.276;2023-02-28T03:55:00;10.8;;;5.6;;
67344;SDS011;54230;52.402;6.276;2023-02-28T04:00:02;10.7;;;5.3;;
67344;SDS011;54230;52.402;6.276;2023-02-28T04:05:00;13.2;;;5.7;;
67344;SDS011;54230;52.402;6.276;2023-02-28T04:10:00;10.1;;;5.4;;
67344;SDS011;54230;52.402;6.276;2023-02-28T04:15:00;9.5;;;4.8;;
67344;SDS011;54230;52.402;6.276;2023-02-28T04:20:00;8.4;;;5.1;;
67344;SDS011;54230;52.402;6.276;2023-02-28T04:25:00;10.2;;;4.4;;
67344;SDS011;54230;52.402;6.276;2023-02-28T04:30:00;8.4;;;4.5;;
67344;SDS011;54230;52.402;6.276;2023-02-28T04:35:00;11.9;;;4.6;;
67344;SDS011;54230;52.402;6.276;2023-02-28T04:40:00;9.4;;;4.4;;
67344;SDS011;54230;52.402;6.276;2023-02-28T04:45:00;11.2;;;4.7;;
67344;SDS011;54230;52.402;6.276;2023-02-28T04:50:00;9.5;;;4.3;;
67344;SDS011;54230;52.402;6.276;2023-02-28T04:55:00;9.6;;;5.0;;
67344;SDS011;54230;52.402;6.276;2023-02-28T05:00:00;8.6;;;4.4;;
67344;SDS011;54230;52.402;6.276;2023-02-28T05:05:00;8.3;;;4.7;;
67344;SDS011;54230;52.402;6.276;2023-02-28T05:10:00;9.1;;;4.4;;
67344;SDS011;54230;52.402;6.276;2023-02-28T05:15:00;9.4;;;4.7;;
67344;SDS011;54230;52.402;6.276;2023-02-28T05:20:00;8.0;;;4.5;;
67344;SDS011;54230;52.402;6.276;2023-02-28T05:25:00;13.3;;;4.7;;
67344;SDS011;54230;52.402;6.276;2023-02-28T05:30:00;9.6;;;4.7;;
67344;SDS011;54230;52.402;6.276;2023-02-28T05:35:00;9.6;;;4.7;;
67344;SDS011;54230;52.402;6.276;2023-02-28T05:40:00;8.6;;;4.3;;
67344;SDS011;54230;52.402;6.276;2023-02-28T05:45:00;11.0;;;5.0;;
67344;SDS011;54230;52.402;6.276;2023-02-28T05:50:00;8.1;;;4.7;;
67344;SDS011;54230;52.402;6.276;2023-02-28T05:55:00;9.9;;;4.8;;
67344;SDS011;54230;52.402;6.276;2023-02-28T06:00:00;10.2;;;4.7;;
67344;SDS011;54230;52.402;6.276;2023-02-28T06:05:00;7.7;;;4.6;;
67344;SDS011;54230;52.402;6.276;2023-02-28T06:10:00;10.6;;;4.8;;
67344;SDS011;54230;52.402;6.276;2023-02-28T06:15:00;9.1;;;4.7;;
67344;SDS011;54230;52.402;6.276;2023-02-28T06:20:00;8.9;;;4.7;;
67344;SDS011;54230;52.402;6.276;2023-02-28T06:25:00;10.3;;;4.9;;
67344;SDS011;54230;52.402;6.276;2023-02-28T06:30:00;8.9;;;4.6;;
67344;SDS011;54230;52.402;6.276;2023-02-28T06:35:00;8.0;;;4.6;;
67344;SDS011;54230;52.402;6.276;2023-02-28T06:40:00;8.5;;;4.8;;
67344;SDS011;54230;52.402;6.276;2023-02-28T06:45:00;8.5;;;4.5;;
67344;SDS011;54230;52.402;6.276;2023-02-28T06:50:00;10.5;;;4.6;;
67344;SDS011;54230;52.402;6.276;2023-02-28T06:55:00;12.1;;;5.1;;
67344;SDS011;54230;52.402;6.276;2023-02-28T07:00:00;10.3;;;5.0;;
67344;SDS011;54230;52.402;6.276;2023-02-28T07:05:00;9.2;;;5.0;;
67344;SDS011;54230;52.402;6.276;2023-02-28T07:10:00;11.8;;;5.0;;
67344;SDS011;54230;52.402;6.276;2023-02-28T07:15:00;9.3;;;4.8;;
67344;SDS011;54230;52.402;6.276;2023-02-28T07:20:00;9.6;;;4.9;;
67344;SDS011;54230;52.402;6.276;2023-02-28T07:25:00;8.8;;;4.8;;
67344;SDS011;54230;52.402;6.276;2023-02-28T07:30:00;9.2;;;4.9;;
67344;SDS011;54230;52.402;6.276;2023-02-28T07:35:00;8.6;;;4.9;;
67344;SDS011;54230;52.402;6.276;2023-02-28T07:40:00;8.3;;;4.7;;
67344;SDS011;54230;52.402;6.276;2023-02-28T07:45:00;9.7;;;5.0;;
67344;SDS011;54230;52.402;6.276;2023-02-28T07:50:00;8.8;;;4.6;;
67344;SDS011;54230;52.402;6.276;2023-02-28T07:55:00;10.2;;;5.0;;
67344;SDS011;54230;52.402;6.276;2023-02-28T08:00:00;12.4;;;4.5;;
67344;SDS011;54230;52.402;6.276;2023-02-28T08:05:00;8.9;;;4.0;;
67344;SDS011;54230;52.402;6.276;2023-02-28T08:10:00;8.3;;;4.4;;
67344;SDS011;54230;52.402;6.276;2023-02-28T08:15:00;8.4;;;4.2;;
67344;SDS011;54230;52.402;6.276;2023-02-28T08:20:00;6.6;;;3.2;;
67344;SDS011;54230;52.402;6.276;2023-02-28T08:25:00;4.9;;;2.5;;
67344;SDS011;54230;52.402;6.276;2023-02-28T08:30:00;7.6;;;3.1;;
67344;SDS011;54230;52.402;6.276;2023-02-28T08:35:00;5.6;;;3.0;;
67344;SDS011;54230;52.402;6.276;2023-02-28T08:40:00;5.7;;;3.0;;
67344;SDS011;54230;52.402;6.276;2023-02-28T08:45:00;5.5;;;3.0;;
67344;SDS011;54230;52.402;6.276;2023-02-28T08:50:00;7.2;;;3.3;;
67344;SDS011;54230;52.402;6.276;2023-02-28T08:55:00;6.0;;;3.1;;
67344;SDS011;54230;52.402;6.276;2023-02-28T09:00:00;4.6;;;2.4;;
67344;SDS011;54230;52.402;6.276;2023-02-28T09:05:00;4.2;;;2.2;;
67344;SDS011;54230;52.402;6.276;2023-02-28T09:10:00;3.8;;;1.9;;
67344;SDS011;54230;52.402;6.276;2023-02-28T09:15:00;3.7;;;1.7;;
67344;SDS011;54230;52.402;6.276;2023-02-28T09:20:00;3.5;;;1.5;;
67344;SDS011;54230;52.402;6.276;2023-02-28T09:25:00;3.1;;;1.5;;
67344;SDS011;54230;52.402;6.276;2023-02-28T09:30:00;3.0;;;1.7;;
67344;SDS011;54230;52.402;6.276;2023-02-28T09:35:00;4.8;;;2.0;;
67344;SDS011;54230;52.402;6.276;2023-02-28T09:40:00;4.6;;;1.9;;
67344;SDS011;54230;52.402;6.276;2023-02-28T09:45:00;4.5;;;1.9;;
67344;SDS011;54230;52.402;6.276;2023-02-28T09:50:03;3.6;;;1.9;;
67344;SDS011;54230;52.402;6.276;2023-02-28T09:55:01;3.8;;;1.8;;
67344;SDS011;54230;52.402;6.276;2023-02-28T10:00:03;3.7;;;1.8;;
67344;SDS011;54230;52.402;6.276;2023-02-28T10:05:00;4.1;;;2.2;;
67344;SDS011;54230;52.402;6.276;2023-02-28T10:10:01;3.9;;;2.0;;
67344;SDS011;54230;52.402;6.276;2023-02-28T10:15:00;4.7;;;2.0;;
67344;SDS011;54230;52.402;6.276;2023-02-28T10:20:02;3.0;;;1.9;;
67344;SDS011;54230;52.402;6.276;2023-02-28T10:25:00;3.7;;;2.0;;
67344;SDS011;54230;52.402;6.276;2023-02-28T10:30:01;4.8;;;2.1;;
67344;SDS011;54230;52.402;6.276;2023-02-28T10:35:00;4.0;;;2.2;;
67344;SDS011;54230;52.402;6.276;2023-02-28T10:40:00;4.5;;;2.1;;
67344;SDS011;54230;52.402;6.276;2023-02-28T10:50:00;3.7;;;1.9;;
67344;SDS011;54230;52.402;6.276;2023-02-28T11:00:05;6.3;;;2.1;;
67344;SDS011;54230;52.402;6.276;2023-02-28T11:05:00;4.3;;;2.1;;
67344;SDS011;54230;52.402;6.276;2023-02-28T11:10:00;4.0;;;2.0;;
67344;SDS011;54230;52.402;6.276;2023-02-28T11:15:01;4.3;;;2.0;;
67344;SDS011;54230;52.402;6.276;2023-02-28T11:20:01;3.2;;;1.8;;
67344;SDS011;54230;52.402;6.276;2023-02-28T11:25:01;3.1;;;1.9;;
67344;SDS011;54230;52.402;6.276;2023-02-28T11:30:00;3.6;;;2.1;;
67344;SDS011;54230;52.402;6.276;2023-02-28T11:35:00;4.0;;;1.8;;
67344;SDS011;54230;52.402;6.276;2023-02-28T11:40:00;4.2;;;1.9;;
67344;SDS011;54230;52.402;6.276;2023-02-28T11:45:03;6.0;;;2.1;;
67344;SDS011;54230;52.402;6.276;2023-02-28T11:50:07;4.1;;;2.1;;
67344;SDS011;54230;52.402;6.276;2023-02-28T11:55:02;4.5;;;2.0;;
67344;SDS011;54230;52.402;6.276;2023-02-28T12:00:03;3.8;;;1.9;;
67344;SDS011;54230;52.402;6.276;2023-02-28T12:05:04;3.7;;;2.0;;
67344;SDS011;54230;52.402;6.276;2023-02-28T12:10:02;4.0;;;1.9;;
67344;SDS011;54230;52.402;6.276;2023-02-28T12:15:04;3.9;;;2.1;;
67344;SDS011;54230;52.402;6.276;2023-02-28T12:20:02;4.2;;;2.3;;
67344;SDS011;54230;52.402;6.276;2023-02-28T12:30:01;3.6;;;2.1;;
67344;SDS011;54230;52.402;6.276;2023-02-28T12:35:01;3.3;;;2.1;;
67344;SDS011;54230;52.402;6.276;2023-02-28T12:40:01;4.4;;;2.2;;
67344;SDS011;54230;52.402;6.276;2023-02-28T12:45:01;3.8;;;2.1;;
67344;SDS011;54230;52.402;6.276;2023-02-28T12:50:02;4.4;;;2.3;;
67344;SDS011;54230;52.402;6.276;2023-02-28T12:55:01;4.8;;;2.3;;
67344;SDS011;54230;52.402;6.276;2023-02-28T13:00:01;4.0;;;2.4;;
67344;SDS011;54230;52.402;6.276;2023-02-28T13:05:10;4.2;;;2.5;;
67344;SDS011;54230;52.402;6.276;2023-02-28T13:10:00;4.0;;;2.3;;
67344;SDS011;54230;52.402;6.276;2023-02-28T13:15:02;5.3;;;2.4;;
67344;SDS011;54230;52.402;6.276;2023-02-28T13:20:00;4.8;;;2.7;;
67344;SDS011;54230;52.402;6.276;2023-02-28T13:25:00;3.9;;;2.4;;
67344;SDS011;54230;52.402;6.276;2023-02-28T13:30:01;4.0;;;2.4;;
67344;SDS011;54230;52.402;6.276;2023-02-28T13:40:13;4.9;;;2.6;;
67344;SDS011;54230;52.402;6.276;2023-02-28T14:00:02;4.4;;;2.4;;
67344;SDS011;54230;52.402;6.276;2023-02-28T14:05:01;4.5;;;2.4;;
67344;SDS011;54230;52.402;6.276;2023-02-28T14:10:01;4.4;;;2.5;;
67344;SDS011;54230;52.402;6.276;2023-02-28T14:15:00;3.6;;;2.3;;
67344;SDS011;54230;52.402;6.276;2023-02-28T14:20:00;4.0;;;2.3;;
67344;SDS011;54230;52.402;6.276;2023-02-28T14:25:05;3.8;;;2.4;;
67344;SDS011;54230;52.402;6.276;2023-02-28T14:30:04;5.3;;;2.8;;
67344;SDS011;54230;52.402;6.276;2023-02-28T14:35:02;5.2;;;2.8;;
67344;SDS011;54230;52.402;6.276;2023-02-28T14:40:00;4.5;;;2.5;;
67344;SDS011;54230;52.402;6.276;2023-02-28T14:45:00;7.8;;;3.7;;
67344;SDS011;54230;52.402;6.276;2023-02-28T14:50:00;5.5;;;2.9;;
67344;SDS011;54230;52.402;6.276;2023-02-28T14:55:00;11.8;;;4.8;;
67344;SDS011;54230;52.402;6.276;2023-02-28T15:00:01;4.9;;;2.4;;
67344;SDS011;54230;52.402;6.276;2023-02-28T15:05:01;8.5;;;4.2;;
67344;SDS011;54230;52.402;6.276;2023-02-28T15:10:08;16.5;;;7.0;;
67344;SDS011;54230;52.402;6.276;2023-02-28T15:15:00;5.8;;;3.0;;
67344;SDS011;54230;52.402;6.276;2023-02-28T15:20:00;6.6;;;3.2;;
67344;SDS011;54230;52.402;6.276;2023-02-28T15:25:00;7.6;;;3.3;;
67344;SDS011;54230;52.402;6.276;2023-02-28T15:30:04;23.0;;;6.2;;
67344;SDS011;54230;52.402;6.276;2023-02-28T15:40:04;4.0;;;2.1;;
67344;SDS011;54230;52.402;6.276;2023-02-28T15:45:00;4.3;;;2.5;;
67344;SDS011;54230;52.402;6.276;2023-02-28T15:50:00;5.2;;;2.1;;
67344;SDS011;54230;52.402;6.276;2023-02-28T15:55:06;4.3;;;2.3;;
67344;SDS011;54230;52.402;6.276;2023-02-28T16:00:00;3.7;;;2.3;;
67344;SDS011;54230;52.402;6.276;2023-02-28T16:05:02;5.1;;;2.1;;
67344;SDS011;54230;52.402;6.276;2023-02-28T16:10:00;4.2;;;2.2;;
67344;SDS011;54230;52.402;6.276;2023-02-28T16:15:01;4.3;;;2.1;;
67344;SDS011;54230;52.402;6.276;2023-02-28T16:20:00;4.4;;;2.4;;
67344;SDS011;54230;52.402;6.276;2023-02-28T16:25:00;3.9;;;2.3;;
67344;SDS011;54230;52.402;6.276;2023-02-28T16:30:00;3.5;;;2.2;;
67344;SDS011;54230;52.402;6.276;2023-02-28T16:35:00;4.3;;;2.4;;
67344;SDS011;54230;52.402;6.276;2023-02-28T16:40:00;5.1;;;2.7;;
67344;SDS011;54230;52.402;6.276;2023-02-28T16:45:00;10.8;;;3.7;;
67344;SDS011;54230;52.402;6.276;2023-02-28T16:50:00;5.2;;;2.6;;
67344;SDS011;54230;52.402;6.276;2023-02-28T16:55:00;4.7;;;2.7;;
67344;SDS011;54230;52.402;6.276;2023-02-28T17:00:00;4.8;;;2.7;;
67344;SDS011;54230;52.402;6.276;2023-02-28T17:05:00;4.8;;;2.7;;
67344;SDS011;54230;52.402;6.276;2023-02-28T17:10:00;5.8;;;3.0;;
67344;SDS011;54230;52.402;6.276;2023-02-28T17:15:00;7.0;;;3.2;;
67344;SDS011;54230;52.402;6.276;2023-02-28T17:20:00;7.0;;;3.4;;
67344;SDS011;54230;52.402;6.276;2023-02-28T17:25:00;6.2;;;3.1;;
67344;SDS011;54230;52.402;6.276;2023-02-28T17:30:00;5.3;;;3.1;;
67344;SDS011;54230;52.402;6.276;2023-02-28T17:35:00;5.1;;;3.1;;
67344;SDS011;54230;52.402;6.276;2023-02-28T17:40:00;8.1;;;4.6;;
67344;SDS011;54230;52.402;6.276;2023-02-28T17:45:00;7.4;;;4.1;;
67344;SDS011;54230;52.402;6.276;2023-02-28T17:50:00;6.5;;;3.3;;
67344;SDS011;54230;52.402;6.276;2023-02-28T17:55:00;6.2;;;3.4;;
67344;SDS011;54230;52.402;6.276;2023-02-28T18:00:00;6.3;;;3.7;;
67344;SDS011;54230;52.402;6.276;2023-02-28T18:05:00;8.6;;;3.6;;
67344;SDS011;54230;52.402;6.276;2023-02-28T18:10:00;7.1;;;3.6;;
67344;SDS011;54230;52.402;6.276;2023-02-28T18:15:00;6.4;;;3.5;;
67344;SDS011;54230;52.402;6.276;2023-02-28T18:20:00;6.8;;;3.6;;
67344;SDS011;54230;52.402;6.276;2023-02-28T18:25:00;8.4;;;4.7;;
67344;SDS011;54230;52.402;6.276;2023-02-28T18:30:00;14.1;;;8.6;;
67344;SDS011;54230;52.402;6.276;2023-02-28T18:35:00;15.1;;;7.3;;
67344;SDS011;54230;52.402;6.276;2023-02-28T18:40:00;10.7;;;6.1;;
67344;SDS011;54230;52.402;6.276;2023-02-28T18:45:00;8.1;;;4.6;;
67344;SDS011;54230;52.402;6.276;2023-02-28T18:50:00;11.7;;;4.7;;
67344;SDS011;54230;52.402;6.276;2023-02-28T18:55:00;9.7;;;5.2;;
67344;SDS011;54230;52.402;6.276;2023-02-28T19:00:00;9.3;;;4.9;;
67344;SDS011;54230;52.402;6.276;2023-02-28T19:05:00;12.2;;;5.9;;
67344;SDS011;54230;52.402;6.276;2023-02-28T19:10:00;8.6;;;4.9;;
67344;SDS011;54230;52.402;6.276;2023-02-28T19:15:00;10.7;;;5.1;;
67344;SDS011;54230;52.402;6.276;2023-02-28T19:20:00;11.3;;;5.6;;
67344;SDS011;54230;52.402;6.276;2023-02-28T19:25:00;12.0;;;5.7;;
67344;SDS011;54230;52.402;6.276;2023-02-28T19:30:00;11.7;;;6.0;;
67344;SDS011;54230;52.402;6.276;2023-02-28T19:35:00;12.4;;;6.1;;
67344;SDS011;54230;52.402;6.276;2023-02-28T19:40:00;7.9;;;4.3;;
67344;SDS011;54230;52.402;6.276;2023-02-28T19:45:00;9.5;;;4.3;;
67344;SDS011;54230;52.402;6.276;2023-02-28T19:50:00;11.0;;;4.6;;
67344;SDS011;54230;52.402;6.276;2023-02-28T19:55:00;12.2;;;4.8;;
67344;SDS011;54230;52.402;6.276;2023-02-28T20:00:00;9.9;;;4.7;;
67344;SDS011;54230;52.402;6.276;2023-02-28T20:05:00;8.7;;;4.8;;
67344;SDS011;54230;52.402;6.276;2023-02-28T20:10:00;8.3;;;4.7;;
67344;SDS011;54230;52.402;6.276;2023-02-28T20:15:00;8.8;;;4.9;;
67344;SDS011;54230;52.402;6.276;2023-02-28T20:20:00;9.4;;;5.0;;
67344;SDS011;54230;52.402;6.276;2023-02-28T20:25:00;9.3;;;5.2;;
67344;SDS011;54230;52.402;6.276;2023-02-28T20:30:00;10.4;;;4.9;;
67344;SDS011;54230;52.402;6.276;2023-02-28T20:35:00;9.9;;;5.6;;
67344;SDS011;54230;52.402;6.276;2023-02-28T20:40:00;8.8;;;5.1;;
67344;SDS011;54230;52.402;6.276;2023-02-28T20:45:00;8.8;;;5.3;;
67344;SDS011;54230;52.402;6.276;2023-02-28T20:50:00;10.4;;;4.9;;
67344;SDS011;54230;52.402;6.276;2023-02-28T20:55:00;11.4;;;5.1;;
67344;SDS011;54230;52.402;6.276;2023-02-28T21:00:00;8.8;;;4.7;;
67344;SDS011;54230;52.402;6.276;2023-02-28T21:05:00;10.1;;;4.9;;
67344;SDS011;54230;52.402;6.276;2023-02-28T21:10:00;10.1;;;5.4;;
67344;SDS011;54230;52.402;6.276;2023-02-28T21:15:00;12.3;;;5.6;;
67344;SDS011;54230;52.402;6.276;2023-02-28T21:20:00;9.3;;;5.5;;
67344;SDS011;54230;52.402;6.276;2023-02-28T21:25:00;11.0;;;6.0;;
67344;SDS011;54230;52.402;6.276;2023-02-28T21:30:00;10.0;;;5.8;;
67344;SDS011;54230;52.402;6.276;2023-02-28T21:35:00;10.2;;;6.0;;
67344;SDS011;54230;52.402;6.276;2023-02-28T21:40:00;10.1;;;5.8;;
67344;SDS011;54230;52.402;6.276;2023-02-28T21:45:00;9.4;;;5.4;;
67344;SDS011;54230;52.402;6.276;2023-02-28T21:50:00;10.2;;;6.4;;
67344;SDS011;54230;52.402;6.276;2023-02-28T21:55:00;12.2;;;6.8;;
67344;SDS011;54230;52.402;6.276;2023-02-28T22:00:00;12.7;;;8.6;;
67344;SDS011;54230;52.402;6.276;2023-02-28T22:05:00;14.1;;;10.1;;
67344;SDS011;54230;52.402;6.276;2023-02-28T22:10:00;14.6;;;10.8;;
67344;SDS011;54230;52.402;6.276;2023-02-28T22:15:00;18.2;;;13.7;;
67344;SDS011;54230;52.402;6.276;2023-02-28T22:20:00;18.9;;;16.6;;
67344;SDS011;54230;52.402;6.276;2023-02-28T22:25:00;17.3;;;15.5;;
67344;SDS011;54230;52.402;6.276;2023-02-28T22:30:00;20.8;;;17.2;;
67344;SDS011;54230;52.402;6.276;2023-02-28T22:35:00;22.4;;;18.3;;
67344;SDS011;54230;52.402;6.276;2023-02-28T22:40:00;21.5;;;19.2;;
67344;SDS011;54230;52.402;6.276;2023-02-28T22:45:00;22.0;;;19.7;;
67344;SDS011;54230;52.402;6.276;2023-02-28T22:50:00;20.7;;;18.6;;
67344;SDS011;54230;52.402;6.276;2023-02-28T22:55:00;21.9;;;19.7;;
67344;SDS011;54230;52.402;6.276;2023-02-28T23:00:00;23.6;;;19.9;;
67344;SDS011;54230;52.402;6.276;2023-02-28T23:05:00;27.0;;;23.4;;
67344;SDS011;54230;52.402;6.276;2023-02-28T23:10:02;26.6;;;23.1;;
67344;SDS011;54230;52.402;6.276;2023-02-28T23:15:00;27.1;;;22.3;;
67344;SDS011;54230;52.402;6.276;2023-02-28T23:20:00;25.3;;;21.9;;
67344;SDS011;54230;52.402;6.276;2023-02-28T23:25:00;23.7;;;21.1;;
67344;SDS011;54230;52.402;6.276;2023-02-28T23:30:00;25.8;;;20.6;;
67344;SDS011;54230;52.402;6.276;2023-02-28T23:35:00;23.7;;;21.2;;
67344;SDS011;54230;52.402;6.276;2023-02-28T23:40:00;24.3;;;21.7;;
67344;SDS011;54230;52.402;6.276;2023-02-28T23:45:00;23.3;;;20.8;;
67344;SDS011;54230;52.402;6.276;2023-02-28T23:50:00;23.2;;;20.8;;
67344;SDS011;54230;52.402;6.276;2023-02-28T23:55:00;22.6;;;20.3;;
